Hawleyville, Connecticut
Current Conditions -  °F | °C
As of 9:53 PM on Monday 20 Oct 2014 (Local Time) from KDXR Reporting Station
Clear Clear  
Wind Chill: 44°   Ceiling: Unl
Heat Index: 44°   Visibility: 10mi
Dew Point: 31°   Wind: 0mph
Humidity: 60%   Direction: NA
Pressure: 29.99"   Gusts: NA
Location:  41.43°N, 73.36°W
Report Text: KDXR 210153Z 00000KT 10SM CLR 07/M01 A2999 RMK AO2 SLP156 T00671006
Loading
Personal Weather Stations






























Interactive Weather Map
Tropical Storm Tracking
New forecast layout! Learn more

10-Day Weather Forecast

Advertisements
Track Severe Weather on mobile